sensor_id;sensor_type;location;lat;lon;timestamp;P1;durP1;ratioP1;P2;durP2;ratioP2
74957;SDS011;63741;42.624;26.276;2022-11-15T00:01:29;33.08;;;16.20;;
74957;SDS011;63741;42.624;26.276;2022-11-15T00:04:15;31.98;;;16.02;;
74957;SDS011;63741;42.624;26.276;2022-11-15T00:07:07;27.05;;;15.32;;
74957;SDS011;63741;42.624;26.276;2022-11-15T00:10:03;27.65;;;15.88;;
74957;SDS011;63741;42.624;26.276;2022-11-15T00:12:49;26.75;;;15.95;;
74957;SDS011;63741;42.624;26.276;2022-11-15T00:15:35;27.88;;;15.73;;
74957;SDS011;63741;42.624;26.276;2022-11-15T00:18:21;27.92;;;16.10;;
74957;SDS011;63741;42.624;26.276;2022-11-15T00:21:10;28.63;;;16.70;;
74957;SDS011;63741;42.624;26.276;2022-11-15T00:23:56;27.33;;;16.58;;
74957;SDS011;63741;42.624;26.276;2022-11-15T00:26:43;27.50;;;16.40;;
74957;SDS011;63741;42.624;26.276;2022-11-15T00:29:28;31.73;;;17.48;;
74957;SDS011;63741;42.624;26.276;2022-11-15T00:32:20;29.33;;;16.13;;
74957;SDS011;63741;42.624;26.276;2022-11-15T00:35:06;25.75;;;15.52;;
74957;SDS011;63741;42.624;26.276;2022-11-15T00:37:51;26.45;;;16.02;;
74957;SDS011;63741;42.624;26.276;2022-11-15T00:41:01;28.67;;;16.02;;
74957;SDS011;63741;42.624;26.276;2022-11-15T00:44:01;26.92;;;14.98;;
74957;SDS011;63741;42.624;26.276;2022-11-15T00:46:46;28.83;;;16.67;;
74957;SDS011;63741;42.624;26.276;2022-11-15T00:49:32;27.55;;;15.77;;
74957;SDS011;63741;42.624;26.276;2022-11-15T00:52:17;27.83;;;16.17;;
74957;SDS011;63741;42.624;26.276;2022-11-15T00:55:03;26.63;;;15.05;;
74957;SDS011;63741;42.624;26.276;2022-11-15T00:57:48;26.77;;;15.82;;
74957;SDS011;63741;42.624;26.276;2022-11-15T01:00:34;26.33;;;16.15;;
74957;SDS011;63741;42.624;26.276;2022-11-15T01:03:43;28.98;;;16.75;;
74957;SDS011;63741;42.624;26.276;2022-11-15T01:06:42;29.70;;;16.17;;
74957;SDS011;63741;42.624;26.276;2022-11-15T01:09:28;30.35;;;17.17;;
74957;SDS011;63741;42.624;26.276;2022-11-15T01:12:13;27.95;;;15.75;;
74957;SDS011;63741;42.624;26.276;2022-11-15T01:14:59;28.55;;;16.50;;
74957;SDS011;63741;42.624;26.276;2022-11-15T01:17:44;25.92;;;15.65;;
74957;SDS011;63741;42.624;26.276;2022-11-15T01:20:50;24.55;;;14.95;;
74957;SDS011;63741;42.624;26.276;2022-11-15T01:23:36;27.05;;;16.02;;
74957;SDS011;63741;42.624;26.276;2022-11-15T01:26:23;28.17;;;15.90;;
74957;SDS011;63741;42.624;26.276;2022-11-15T01:29:09;31.10;;;16.58;;
74957;SDS011;63741;42.624;26.276;2022-11-15T01:32:20;30.10;;;16.65;;
74957;SDS011;63741;42.624;26.276;2022-11-15T01:35:19;31.35;;;16.75;;
74957;SDS011;63741;42.624;26.276;2022-11-15T01:38:05;32.38;;;16.58;;
74957;SDS011;63741;42.624;26.276;2022-11-15T01:40:51;32.47;;;17.77;;
74957;SDS011;63741;42.624;26.276;2022-11-15T01:43:36;32.42;;;17.13;;
74957;SDS011;63741;42.624;26.276;2022-11-15T01:46:23;32.13;;;17.90;;
74957;SDS011;63741;42.624;26.276;2022-11-15T01:49:47;34.35;;;17.08;;
74957;SDS011;63741;42.624;26.276;2022-11-15T01:52:44;29.27;;;16.67;;
74957;SDS011;63741;42.624;26.276;2022-11-15T01:55:30;29.23;;;16.88;;
74957;SDS011;63741;42.624;26.276;2022-11-15T01:58:15;30.85;;;17.58;;
74957;SDS011;63741;42.624;26.276;2022-11-15T02:01:01;28.48;;;16.73;;
74957;SDS011;63741;42.624;26.276;2022-11-15T02:06:58;30.58;;;17.60;;
74957;SDS011;63741;42.624;26.276;2022-11-15T02:09:44;31.27;;;18.17;;
74957;SDS011;63741;42.624;26.276;2022-11-15T02:12:30;32.53;;;17.52;;
74957;SDS011;63741;42.624;26.276;2022-11-15T02:15:16;31.70;;;17.15;;
74957;SDS011;63741;42.624;26.276;2022-11-15T02:39:35;35.92;;;18.63;;
74957;SDS011;63741;42.624;26.276;2022-11-15T02:42:30;35.50;;;18.05;;
74957;SDS011;63741;42.624;26.276;2022-11-15T02:45:40;31.92;;;17.05;;
74957;SDS011;63741;42.624;26.276;2022-11-15T02:48:31;31.23;;;18.67;;
74957;SDS011;63741;42.624;26.276;2022-11-15T02:51:18;35.50;;;18.77;;
74957;SDS011;63741;42.624;26.276;2022-11-15T02:54:03;30.77;;;17.65;;
74957;SDS011;63741;42.624;26.276;2022-11-15T02:56:49;35.10;;;17.23;;
74957;SDS011;63741;42.624;26.276;2022-11-15T03:05:44;32.25;;;18.42;;
74957;SDS011;63741;42.624;26.276;2022-11-15T03:11:59;31.85;;;17.70;;
74957;SDS011;63741;42.624;26.276;2022-11-15T03:14:58;33.30;;;18.25;;
74957;SDS011;63741;42.624;26.276;2022-11-15T03:20:43;28.20;;;15.98;;
74957;SDS011;63741;42.624;26.276;2022-11-15T03:23:30;33.38;;;18.13;;
74957;SDS011;63741;42.624;26.276;2022-11-15T03:26:18;32.15;;;17.25;;
74957;SDS011;63741;42.624;26.276;2022-11-15T03:29:20;31.23;;;16.98;;
74957;SDS011;63741;42.624;26.276;2022-11-15T03:32:20;32.40;;;17.00;;
74957;SDS011;63741;42.624;26.276;2022-11-15T03:35:11;32.95;;;17.05;;
74957;SDS011;63741;42.624;26.276;2022-11-15T03:38:13;33.28;;;18.17;;
74957;SDS011;63741;42.624;26.276;2022-11-15T03:41:05;34.30;;;18.13;;
74957;SDS011;63741;42.624;26.276;2022-11-15T03:43:57;31.77;;;17.65;;
74957;SDS011;63741;42.624;26.276;2022-11-15T03:50:03;31.17;;;18.10;;
74957;SDS011;63741;42.624;26.276;2022-11-15T03:52:53;34.08;;;18.98;;
74957;SDS011;63741;42.624;26.276;2022-11-15T03:55:40;32.15;;;17.83;;
74957;SDS011;63741;42.624;26.276;2022-11-15T03:58:25;33.83;;;19.20;;
74957;SDS011;63741;42.624;26.276;2022-11-15T04:01:11;36.92;;;19.17;;
74957;SDS011;63741;42.624;26.276;2022-11-15T04:03:56;36.50;;;19.35;;
74957;SDS011;63741;42.624;26.276;2022-11-15T04:06:42;35.17;;;19.23;;
74957;SDS011;63741;42.624;26.276;2022-11-15T04:09:27;35.58;;;19.00;;
74957;SDS011;63741;42.624;26.276;2022-11-15T04:12:13;35.15;;;19.50;;
74957;SDS011;63741;42.624;26.276;2022-11-15T04:15:19;32.70;;;18.15;;
74957;SDS011;63741;42.624;26.276;2022-11-15T04:18:07;35.65;;;19.90;;
74957;SDS011;63741;42.624;26.276;2022-11-15T04:20:52;35.03;;;18.23;;
74957;SDS011;63741;42.624;26.276;2022-11-15T04:23:56;35.13;;;19.13;;
74957;SDS011;63741;42.624;26.276;2022-11-15T04:26:57;37.88;;;19.02;;
74957;SDS011;63741;42.624;26.276;2022-11-15T04:29:43;34.25;;;18.75;;
74957;SDS011;63741;42.624;26.276;2022-11-15T04:32:28;36.25;;;19.58;;
74957;SDS011;63741;42.624;26.276;2022-11-15T04:35:13;33.22;;;19.13;;
74957;SDS011;63741;42.624;26.276;2022-11-15T04:37:59;32.80;;;17.88;;
74957;SDS011;63741;42.624;26.276;2022-11-15T04:40:45;35.55;;;18.67;;
74957;SDS011;63741;42.624;26.276;2022-11-15T04:43:31;32.83;;;18.20;;
74957;SDS011;63741;42.624;26.276;2022-11-15T04:46:17;38.35;;;19.05;;
74957;SDS011;63741;42.624;26.276;2022-11-15T04:49:02;35.78;;;18.42;;
74957;SDS011;63741;42.624;26.276;2022-11-15T04:51:48;34.80;;;18.40;;
74957;SDS011;63741;42.624;26.276;2022-11-15T04:54:35;34.55;;;18.98;;
74957;SDS011;63741;42.624;26.276;2022-11-15T04:57:20;35.33;;;18.40;;
74957;SDS011;63741;42.624;26.276;2022-11-15T05:00:07;33.15;;;18.50;;
74957;SDS011;63741;42.624;26.276;2022-11-15T05:02:56;34.75;;;17.77;;
74957;SDS011;63741;42.624;26.276;2022-11-15T05:06:01;45.00;;;21.05;;
74957;SDS011;63741;42.624;26.276;2022-11-15T05:08:47;35.85;;;17.45;;
74957;SDS011;63741;42.624;26.276;2022-11-15T05:11:32;33.38;;;16.17;;
74957;SDS011;63741;42.624;26.276;2022-11-15T05:14:18;32.25;;;16.08;;
74957;SDS011;63741;42.624;26.276;2022-11-15T05:17:03;32.58;;;16.30;;
74957;SDS011;63741;42.624;26.276;2022-11-15T05:19:49;36.22;;;14.80;;
74957;SDS011;63741;42.624;26.276;2022-11-15T05:22:37;32.50;;;15.93;;
74957;SDS011;63741;42.624;26.276;2022-11-15T05:25:23;37.47;;;16.33;;
74957;SDS011;63741;42.624;26.276;2022-11-15T05:28:08;38.33;;;16.30;;
74957;SDS011;63741;42.624;26.276;2022-11-15T05:31:04;35.53;;;17.83;;
74957;SDS011;63741;42.624;26.276;2022-11-15T05:33:55;38.03;;;20.48;;
74957;SDS011;63741;42.624;26.276;2022-11-15T05:36:42;38.42;;;18.83;;
74957;SDS011;63741;42.624;26.276;2022-11-15T05:39:30;36.03;;;17.77;;
74957;SDS011;63741;42.624;26.276;2022-11-15T05:42:15;36.35;;;17.33;;
74957;SDS011;63741;42.624;26.276;2022-11-15T05:45:02;34.03;;;16.20;;
74957;SDS011;63741;42.624;26.276;2022-11-15T05:47:50;34.08;;;16.25;;
74957;SDS011;63741;42.624;26.276;2022-11-15T05:50:38;36.35;;;17.15;;
74957;SDS011;63741;42.624;26.276;2022-11-15T05:53:26;33.67;;;17.20;;
74957;SDS011;63741;42.624;26.276;2022-11-15T05:56:12;33.70;;;18.25;;
74957;SDS011;63741;42.624;26.276;2022-11-15T05:58:58;34.25;;;16.17;;
74957;SDS011;63741;42.624;26.276;2022-11-15T06:01:44;32.58;;;17.27;;
74957;SDS011;63741;42.624;26.276;2022-11-15T06:04:30;42.25;;;22.80;;
74957;SDS011;63741;42.624;26.276;2022-11-15T06:07:15;34.95;;;16.75;;
74957;SDS011;63741;42.624;26.276;2022-11-15T06:10:01;34.25;;;16.35;;
74957;SDS011;63741;42.624;26.276;2022-11-15T06:12:46;33.28;;;15.13;;
74957;SDS011;63741;42.624;26.276;2022-11-15T06:15:32;34.40;;;16.50;;
74957;SDS011;63741;42.624;26.276;2022-11-15T06:18:19;37.08;;;16.88;;
74957;SDS011;63741;42.624;26.276;2022-11-15T06:21:05;37.25;;;17.55;;
74957;SDS011;63741;42.624;26.276;2022-11-15T06:23:50;33.22;;;16.75;;
74957;SDS011;63741;42.624;26.276;2022-11-15T06:26:36;39.85;;;18.05;;
74957;SDS011;63741;42.624;26.276;2022-11-15T06:29:21;37.92;;;18.05;;
74957;SDS011;63741;42.624;26.276;2022-11-15T06:32:06;34.67;;;18.58;;
74957;SDS011;63741;42.624;26.276;2022-11-15T06:34:52;37.97;;;18.02;;
74957;SDS011;63741;42.624;26.276;2022-11-15T06:37:37;36.35;;;16.90;;
74957;SDS011;63741;42.624;26.276;2022-11-15T06:40:23;37.63;;;17.77;;
74957;SDS011;63741;42.624;26.276;2022-11-15T06:43:08;40.85;;;18.02;;
74957;SDS011;63741;42.624;26.276;2022-11-15T06:45:54;42.95;;;18.75;;
74957;SDS011;63741;42.624;26.276;2022-11-15T06:48:39;37.72;;;17.13;;
74957;SDS011;63741;42.624;26.276;2022-11-15T06:51:24;38.08;;;17.52;;
74957;SDS011;63741;42.624;26.276;2022-11-15T06:54:10;37.42;;;17.90;;
74957;SDS011;63741;42.624;26.276;2022-11-15T06:56:55;37.47;;;17.20;;
74957;SDS011;63741;42.624;26.276;2022-11-15T06:59:40;38.45;;;16.67;;
74957;SDS011;63741;42.624;26.276;2022-11-15T07:02:26;34.60;;;16.13;;
74957;SDS011;63741;42.624;26.276;2022-11-15T07:05:12;30.77;;;12.73;;
74957;SDS011;63741;42.624;26.276;2022-11-15T07:07:58;30.38;;;14.10;;
74957;SDS011;63741;42.624;26.276;2022-11-15T07:10:44;30.50;;;13.85;;
74957;SDS011;63741;42.624;26.276;2022-11-15T07:13:30;31.67;;;14.82;;
74957;SDS011;63741;42.624;26.276;2022-11-15T07:16:20;34.22;;;14.68;;
74957;SDS011;63741;42.624;26.276;2022-11-15T07:19:05;36.65;;;17.60;;
74957;SDS011;63741;42.624;26.276;2022-11-15T07:21:51;31.08;;;14.35;;
74957;SDS011;63741;42.624;26.276;2022-11-15T07:24:36;36.78;;;16.77;;
74957;SDS011;63741;42.624;26.276;2022-11-15T07:27:22;34.03;;;15.75;;
74957;SDS011;63741;42.624;26.276;2022-11-15T07:30:07;31.23;;;15.38;;
74957;SDS011;63741;42.624;26.276;2022-11-15T07:32:54;35.35;;;16.40;;
74957;SDS011;63741;42.624;26.276;2022-11-15T07:35:43;32.25;;;16.48;;
74957;SDS011;63741;42.624;26.276;2022-11-15T07:38:32;34.95;;;15.80;;
74957;SDS011;63741;42.624;26.276;2022-11-15T07:41:24;33.72;;;15.63;;
74957;SDS011;63741;42.624;26.276;2022-11-15T07:44:10;32.55;;;15.55;;
74957;SDS011;63741;42.624;26.276;2022-11-15T07:46:55;32.53;;;15.13;;
74957;SDS011;63741;42.624;26.276;2022-11-15T07:49:41;30.77;;;15.45;;
74957;SDS011;63741;42.624;26.276;2022-11-15T07:52:26;32.83;;;15.63;;
74957;SDS011;63741;42.624;26.276;2022-11-15T07:55:11;35.22;;;16.50;;
74957;SDS011;63741;42.624;26.276;2022-11-15T07:58:03;34.17;;;16.88;;
74957;SDS011;63741;42.624;26.276;2022-11-15T08:00:50;37.55;;;18.60;;
74957;SDS011;63741;42.624;26.276;2022-11-15T08:03:36;42.53;;;20.20;;
74957;SDS011;63741;42.624;26.276;2022-11-15T08:06:21;34.47;;;15.82;;
74957;SDS011;63741;42.624;26.276;2022-11-15T08:09:07;33.08;;;16.17;;
74957;SDS011;63741;42.624;26.276;2022-11-15T08:11:52;40.45;;;21.50;;
74957;SDS011;63741;42.624;26.276;2022-11-15T08:14:37;32.13;;;16.38;;
74957;SDS011;63741;42.624;26.276;2022-11-15T08:17:24;34.70;;;17.83;;
74957;SDS011;63741;42.624;26.276;2022-11-15T08:20:09;31.67;;;18.25;;
74957;SDS011;63741;42.624;26.276;2022-11-15T08:22:55;38.28;;;22.48;;
74957;SDS011;63741;42.624;26.276;2022-11-15T08:25:41;35.85;;;17.17;;
74957;SDS011;63741;42.624;26.276;2022-11-15T08:28:27;31.63;;;15.98;;
74957;SDS011;63741;42.624;26.276;2022-11-15T08:31:17;32.85;;;15.07;;
74957;SDS011;63741;42.624;26.276;2022-11-15T08:34:03;29.92;;;14.20;;
74957;SDS011;63741;42.624;26.276;2022-11-15T08:36:49;27.75;;;14.95;;
74957;SDS011;63741;42.624;26.276;2022-11-15T08:39:34;34.72;;;16.10;;
74957;SDS011;63741;42.624;26.276;2022-11-15T08:42:20;32.22;;;15.05;;
74957;SDS011;63741;42.624;26.276;2022-11-15T08:45:05;31.77;;;15.07;;
74957;SDS011;63741;42.624;26.276;2022-11-15T08:47:52;34.28;;;15.30;;
74957;SDS011;63741;42.624;26.276;2022-11-15T08:50:38;29.73;;;15.55;;
74957;SDS011;63741;42.624;26.276;2022-11-15T08:53:23;26.85;;;13.85;;
74957;SDS011;63741;42.624;26.276;2022-11-15T08:56:10;29.27;;;14.75;;
74957;SDS011;63741;42.624;26.276;2022-11-15T08:58:57;28.25;;;14.93;;
74957;SDS011;63741;42.624;26.276;2022-11-15T09:01:42;30.63;;;15.40;;
74957;SDS011;63741;42.624;26.276;2022-11-15T09:04:28;30.85;;;15.35;;
74957;SDS011;63741;42.624;26.276;2022-11-15T09:07:14;30.48;;;15.50;;
74957;SDS011;63741;42.624;26.276;2022-11-15T09:10:00;32.60;;;15.18;;
74957;SDS011;63741;42.624;26.276;2022-11-15T09:12:45;29.20;;;15.85;;
74957;SDS011;63741;42.624;26.276;2022-11-15T09:15:33;28.42;;;14.25;;
74957;SDS011;63741;42.624;26.276;2022-11-15T09:18:18;29.77;;;15.07;;
74957;SDS011;63741;42.624;26.276;2022-11-15T09:21:06;31.00;;;16.08;;
74957;SDS011;63741;42.624;26.276;2022-11-15T09:23:52;29.00;;;15.07;;
74957;SDS011;63741;42.624;26.276;2022-11-15T09:26:37;31.08;;;17.45;;
74957;SDS011;63741;42.624;26.276;2022-11-15T09:29:22;34.28;;;17.80;;
74957;SDS011;63741;42.624;26.276;2022-11-15T09:32:08;52.70;;;33.17;;
74957;SDS011;63741;42.624;26.276;2022-11-15T09:34:54;66.40;;;40.17;;
74957;SDS011;63741;42.624;26.276;2022-11-15T09:37:40;47.65;;;25.75;;
74957;SDS011;63741;42.624;26.276;2022-11-15T09:40:25;37.60;;;19.58;;
74957;SDS011;63741;42.624;26.276;2022-11-15T09:43:18;46.10;;;22.58;;
74957;SDS011;63741;42.624;26.276;2022-11-15T09:46:30;41.00;;;21.13;;
74957;SDS011;63741;42.624;26.276;2022-11-15T09:49:25;33.28;;;17.33;;
74957;SDS011;63741;42.624;26.276;2022-11-15T09:52:18;37.03;;;17.70;;
74957;SDS011;63741;42.624;26.276;2022-11-15T09:54:47;29.63;;;15.07;;
74957;SDS011;63741;42.624;26.276;2022-11-15T10:03:17;33.42;;;16.70;;
74957;SDS011;63741;42.624;26.276;2022-11-15T10:11:02;35.20;;;16.10;;
74957;SDS011;63741;42.624;26.276;2022-11-15T10:13:53;33.67;;;16.52;;
74957;SDS011;63741;42.624;26.276;2022-11-15T10:21:35;28.98;;;16.70;;
74957;SDS011;63741;42.624;26.276;2022-11-15T10:24:11;35.22;;;17.38;;
74957;SDS011;63741;42.624;26.276;2022-11-15T10:26:45;34.05;;;17.20;;
74957;SDS011;63741;42.624;26.276;2022-11-15T10:29:22;35.65;;;18.08;;
74957;SDS011;63741;42.624;26.276;2022-11-15T10:31:52;33.05;;;18.27;;
74957;SDS011;63741;42.624;26.276;2022-11-15T10:34:20;38.88;;;18.52;;
74957;SDS011;63741;42.624;26.276;2022-11-15T10:36:55;41.05;;;17.98;;
74957;SDS011;63741;42.624;26.276;2022-11-15T10:39:23;33.83;;;18.50;;
74957;SDS011;63741;42.624;26.276;2022-11-15T10:42:14;37.47;;;19.77;;
74957;SDS011;63741;42.624;26.276;2022-11-15T10:44:52;39.17;;;19.48;;
74957;SDS011;63741;42.624;26.276;2022-11-15T10:47:21;39.35;;;20.55;;
74957;SDS011;63741;42.624;26.276;2022-11-15T10:49:59;38.30;;;21.42;;
74957;SDS011;63741;42.624;26.276;2022-11-15T10:52:28;36.67;;;19.38;;
74957;SDS011;63741;42.624;26.276;2022-11-15T10:54:58;35.72;;;20.80;;
74957;SDS011;63741;42.624;26.276;2022-11-15T10:57:33;37.85;;;22.00;;
74957;SDS011;63741;42.624;26.276;2022-11-15T11:00:13;35.40;;;20.90;;
74957;SDS011;63741;42.624;26.276;2022-11-15T11:02:59;34.53;;;20.65;;
74957;SDS011;63741;42.624;26.276;2022-11-15T11:05:37;34.58;;;20.38;;
74957;SDS011;63741;42.624;26.276;2022-11-15T11:10:57;38.92;;;21.38;;
74957;SDS011;63741;42.624;26.276;2022-11-15T11:13:30;39.13;;;21.60;;
74957;SDS011;63741;42.624;26.276;2022-11-15T11:21:40;59.30;;;30.05;;
74957;SDS011;63741;42.624;26.276;2022-11-15T11:49:23;30.00;;;18.48;;
74957;SDS011;63741;42.624;26.276;2022-11-15T11:52:17;30.83;;;18.75;;
74957;SDS011;63741;42.624;26.276;2022-11-15T11:57:58;28.88;;;17.55;;
74957;SDS011;63741;42.624;26.276;2022-11-15T12:03:20;36.50;;;20.40;;
74957;SDS011;63741;42.624;26.276;2022-11-15T12:05:55;31.15;;;17.85;;
74957;SDS011;63741;42.624;26.276;2022-11-15T12:11:19;30.05;;;16.20;;
74957;SDS011;63741;42.624;26.276;2022-11-15T12:13:50;27.73;;;16.58;;
74957;SDS011;63741;42.624;26.276;2022-11-15T12:16:28;35.92;;;18.38;;
74957;SDS011;63741;42.624;26.276;2022-11-15T12:18:58;30.98;;;19.08;;
74957;SDS011;63741;42.624;26.276;2022-11-15T12:24:38;34.50;;;18.75;;
74957;SDS011;63741;42.624;26.276;2022-11-15T12:27:14;27.88;;;16.42;;
74957;SDS011;63741;42.624;26.276;2022-11-15T12:29:52;26.08;;;17.88;;
74957;SDS011;63741;42.624;26.276;2022-11-15T12:32:39;27.92;;;16.83;;
74957;SDS011;63741;42.624;26.276;2022-11-15T12:35:38;31.05;;;18.70;;
74957;SDS011;63741;42.624;26.276;2022-11-15T12:38:11;29.38;;;16.02;;
74957;SDS011;63741;42.624;26.276;2022-11-15T12:41:12;28.02;;;15.88;;
74957;SDS011;63741;42.624;26.276;2022-11-15T12:43:44;29.67;;;16.60;;
74957;SDS011;63741;42.624;26.276;2022-11-15T12:46:23;24.90;;;16.27;;
74957;SDS011;63741;42.624;26.276;2022-11-15T13:04:47;25.75;;;16.13;;
74957;SDS011;63741;42.624;26.276;2022-11-15T13:10:07;31.42;;;17.73;;
74957;SDS011;63741;42.624;26.276;2022-11-15T13:12:57;29.35;;;17.45;;
74957;SDS011;63741;42.624;26.276;2022-11-15T13:15:40;26.17;;;16.33;;
74957;SDS011;63741;42.624;26.276;2022-11-15T13:18:35;28.02;;;16.13;;
74957;SDS011;63741;42.624;26.276;2022-11-15T13:21:16;29.52;;;17.10;;
74957;SDS011;63741;42.624;26.276;2022-11-15T13:24:04;25.92;;;16.67;;
74957;SDS011;63741;42.624;26.276;2022-11-15T13:26:37;29.02;;;16.83;;
74957;SDS011;63741;42.624;26.276;2022-11-15T13:29:14;29.23;;;17.58;;
74957;SDS011;63741;42.624;26.276;2022-11-15T13:31:43;27.05;;;16.67;;
74957;SDS011;63741;42.624;26.276;2022-11-15T13:39:46;30.50;;;17.65;;
74957;SDS011;63741;42.624;26.276;2022-11-15T13:42:19;30.10;;;17.42;;
74957;SDS011;63741;42.624;26.276;2022-11-15T13:44:57;29.98;;;17.20;;
74957;SDS011;63741;42.624;26.276;2022-11-15T13:47:26;33.08;;;17.75;;
74957;SDS011;63741;42.624;26.276;2022-11-15T13:49:59;43.65;;;17.83;;
74957;SDS011;63741;42.624;26.276;2022-11-15T13:52:31;32.38;;;18.27;;
74957;SDS011;63741;42.624;26.276;2022-11-15T13:55:02;33.95;;;17.55;;
74957;SDS011;63741;42.624;26.276;2022-11-15T13:57:44;35.83;;;17.67;;
74957;SDS011;63741;42.624;26.276;2022-11-15T14:05:43;29.00;;;17.60;;
74957;SDS011;63741;42.624;26.276;2022-11-15T14:08:32;28.95;;;16.13;;
74957;SDS011;63741;42.624;26.276;2022-11-15T14:11:33;29.95;;;17.50;;
74957;SDS011;63741;42.624;26.276;2022-11-15T14:16:35;31.65;;;17.90;;
74957;SDS011;63741;42.624;26.276;2022-11-15T14:19:11;33.67;;;20.55;;
74957;SDS011;63741;42.624;26.276;2022-11-15T14:24:36;23.88;;;13.88;;
74957;SDS011;63741;42.624;26.276;2022-11-15T14:29:51;33.88;;;15.85;;
74957;SDS011;63741;42.624;26.276;2022-11-15T14:32:23;30.88;;;16.20;;
74957;SDS011;63741;42.624;26.276;2022-11-15T14:35:03;30.52;;;14.93;;
74957;SDS011;63741;42.624;26.276;2022-11-15T14:37:38;27.38;;;15.73;;
74957;SDS011;63741;42.624;26.276;2022-11-15T14:40:05;33.25;;;15.52;;
74957;SDS011;63741;42.624;26.276;2022-11-15T14:42:32;30.38;;;15.70;;
74957;SDS011;63741;42.624;26.276;2022-11-15T14:44:59;36.65;;;17.08;;
74957;SDS011;63741;42.624;26.276;2022-11-15T14:47:26;27.70;;;15.48;;
74957;SDS011;63741;42.624;26.276;2022-11-15T14:49:53;29.52;;;16.35;;
74957;SDS011;63741;42.624;26.276;2022-11-15T14:52:24;28.92;;;15.18;;
74957;SDS011;63741;42.624;26.276;2022-11-15T14:54:58;32.20;;;15.75;;
74957;SDS011;63741;42.624;26.276;2022-11-15T14:57:26;29.73;;;17.63;;
74957;SDS011;63741;42.624;26.276;2022-11-15T14:59:53;34.22;;;17.10;;
74957;SDS011;63741;42.624;26.276;2022-11-15T15:02:22;31.85;;;17.95;;
74957;SDS011;63741;42.624;26.276;2022-11-15T15:04:50;27.48;;;16.13;;
74957;SDS011;63741;42.624;26.276;2022-11-15T15:07:18;33.45;;;18.10;;
74957;SDS011;63741;42.624;26.276;2022-11-15T15:09:46;30.42;;;16.83;;
74957;SDS011;63741;42.624;26.276;2022-11-15T15:14:48;31.23;;;18.05;;
74957;SDS011;63741;42.624;26.276;2022-11-15T15:17:16;32.80;;;18.65;;
74957;SDS011;63741;42.624;26.276;2022-11-15T15:19:44;39.42;;;20.42;;
74957;SDS011;63741;42.624;26.276;2022-11-15T15:22:15;52.97;;;28.95;;
74957;SDS011;63741;42.624;26.276;2022-11-15T15:24:44;32.75;;;20.40;;
74957;SDS011;63741;42.624;26.276;2022-11-15T15:27:12;35.80;;;20.38;;
74957;SDS011;63741;42.624;26.276;2022-11-15T15:29:39;36.80;;;19.38;;
74957;SDS011;63741;42.624;26.276;2022-11-15T15:32:07;37.60;;;19.27;;
74957;SDS011;63741;42.624;26.276;2022-11-15T15:34:35;33.42;;;19.10;;
74957;SDS011;63741;42.624;26.276;2022-11-15T15:39:45;31.95;;;18.08;;
74957;SDS011;63741;42.624;26.276;2022-11-15T15:42:11;29.73;;;18.25;;
74957;SDS011;63741;42.624;26.276;2022-11-15T15:44:38;42.30;;;18.73;;
74957;SDS011;63741;42.624;26.276;2022-11-15T15:47:12;31.17;;;17.63;;
74957;SDS011;63741;42.624;26.276;2022-11-15T15:49:45;29.58;;;18.35;;
74957;SDS011;63741;42.624;26.276;2022-11-15T15:52:12;33.78;;;20.70;;
74957;SDS011;63741;42.624;26.276;2022-11-15T15:54:39;26.83;;;17.85;;
74957;SDS011;63741;42.624;26.276;2022-11-15T15:57:07;30.90;;;18.38;;
74957;SDS011;63741;42.624;26.276;2022-11-15T15:59:37;28.65;;;17.10;;
74957;SDS011;63741;42.624;26.276;2022-11-15T16:02:04;27.73;;;17.88;;
74957;SDS011;63741;42.624;26.276;2022-11-15T16:04:31;29.45;;;18.02;;
74957;SDS011;63741;42.624;26.276;2022-11-15T16:06:59;30.35;;;16.67;;
74957;SDS011;63741;42.624;26.276;2022-11-15T16:09:27;41.97;;;23.38;;
74957;SDS011;63741;42.624;26.276;2022-11-15T16:12:12;32.47;;;19.50;;
74957;SDS011;63741;42.624;26.276;2022-11-15T16:14:40;29.10;;;17.95;;
74957;SDS011;63741;42.624;26.276;2022-11-15T16:17:29;28.67;;;17.10;;
74957;SDS011;63741;42.624;26.276;2022-11-15T16:19:59;55.95;;;20.90;;
74957;SDS011;63741;42.624;26.276;2022-11-15T16:22:27;31.30;;;18.55;;
74957;SDS011;63741;42.624;26.276;2022-11-15T16:24:56;33.33;;;18.33;;
74957;SDS011;63741;42.624;26.276;2022-11-15T16:27:23;26.38;;;16.38;;
74957;SDS011;63741;42.624;26.276;2022-11-15T16:29:50;28.70;;;16.38;;
74957;SDS011;63741;42.624;26.276;2022-11-15T16:32:16;32.45;;;19.30;;
74957;SDS011;63741;42.624;26.276;2022-11-15T16:34:43;34.75;;;21.15;;
74957;SDS011;63741;42.624;26.276;2022-11-15T16:37:23;31.67;;;20.02;;
74957;SDS011;63741;42.624;26.276;2022-11-15T16:39:50;31.42;;;19.08;;
74957;SDS011;63741;42.624;26.276;2022-11-15T16:42:23;27.30;;;16.25;;
74957;SDS011;63741;42.624;26.276;2022-11-15T16:44:50;32.30;;;18.80;;
74957;SDS011;63741;42.624;26.276;2022-11-15T16:47:17;35.42;;;19.92;;
74957;SDS011;63741;42.624;26.276;2022-11-15T16:49:45;31.45;;;18.00;;
74957;SDS011;63741;42.624;26.276;2022-11-15T16:52:12;31.42;;;18.25;;
74957;SDS011;63741;42.624;26.276;2022-11-15T16:54:46;27.25;;;17.23;;
74957;SDS011;63741;42.624;26.276;2022-11-15T16:57:13;34.97;;;18.75;;
74957;SDS011;63741;42.624;26.276;2022-11-15T16:59:41;34.08;;;18.13;;
74957;SDS011;63741;42.624;26.276;2022-11-15T17:02:12;30.23;;;18.50;;
74957;SDS011;63741;42.624;26.276;2022-11-15T17:04:39;38.72;;;23.63;;
74957;SDS011;63741;42.624;26.276;2022-11-15T17:07:06;36.65;;;21.70;;
74957;SDS011;63741;42.624;26.276;2022-11-15T17:09:34;43.00;;;23.05;;
74957;SDS011;63741;42.624;26.276;2022-11-15T17:12:00;40.88;;;22.10;;
74957;SDS011;63741;42.624;26.276;2022-11-15T17:14:27;51.78;;;28.63;;
74957;SDS011;63741;42.624;26.276;2022-11-15T17:16:54;57.00;;;31.27;;
74957;SDS011;63741;42.624;26.276;2022-11-15T17:19:21;42.90;;;24.27;;
74957;SDS011;63741;42.624;26.276;2022-11-15T17:21:48;32.72;;;20.00;;
74957;SDS011;63741;42.624;26.276;2022-11-15T17:24:15;34.17;;;18.58;;
74957;SDS011;63741;42.624;26.276;2022-11-15T17:26:42;34.28;;;18.40;;
74957;SDS011;63741;42.624;26.276;2022-11-15T17:29:09;38.85;;;18.85;;
74957;SDS011;63741;42.624;26.276;2022-11-15T17:31:36;32.47;;;19.48;;
74957;SDS011;63741;42.624;26.276;2022-11-15T17:34:04;42.85;;;22.70;;
74957;SDS011;63741;42.624;26.276;2022-11-15T17:36:32;47.83;;;25.80;;
74957;SDS011;63741;42.624;26.276;2022-11-15T17:39:01;47.63;;;25.23;;
74957;SDS011;63741;42.624;26.276;2022-11-15T17:41:29;39.97;;;22.45;;
74957;SDS011;63741;42.624;26.276;2022-11-15T17:43:56;45.58;;;24.75;;
74957;SDS011;63741;42.624;26.276;2022-11-15T17:46:25;41.88;;;24.13;;
74957;SDS011;63741;42.624;26.276;2022-11-15T17:48:54;40.38;;;20.83;;
74957;SDS011;63741;42.624;26.276;2022-11-15T17:51:22;39.50;;;21.67;;
74957;SDS011;63741;42.624;26.276;2022-11-15T17:53:49;43.67;;;24.95;;
74957;SDS011;63741;42.624;26.276;2022-11-15T17:56:21;40.92;;;22.88;;